Time,TemperatureF,DewpointF,PressureIn,WindDirection,WindDirectionDegrees,WindSpeedMPH,WindSpeedGustMPH,Humidity,HourlyPrecipIn,Conditions,Clouds,dailyrainin,SoftwareType,DateUTC
2013-05-14 00:00:00,35.8,33.0,30.16,NNW,332,0.0,0.0,90,0.00,,,0.00,weatherlink.com 1.10,2013-05-14 04:00:00,
2013-05-14 00:15:00,36.6,34.0,30.16,North,11,0.0,2.0,89,0.00,,,0.00,weatherlink.com 1.10,2013-05-14 04:15:00,
2013-05-14 00:30:00,37.5,33.0,30.16,North,360,0.0,1.0,85,0.00,,,0.00,weatherlink.com 1.10,2013-05-14 04:30:00,
2013-05-14 00:45:00,36.2,33.0,30.16,North,360,0.0,1.0,89,0.00,,,0.00,weatherlink.com 1.10,2013-05-14 04:45:00,
2013-05-14 01:00:00,35.8,33.0,30.16,North,360,0.0,0.0,89,0.00,,,0.00,weatherlink.com 1.10,2013-05-14 05:00:00,
2013-05-14 01:15:00,35.3,33.0,30.16,North,360,0.0,0.0,90,0.00,,,0.00,weatherlink.com 1.10,2013-05-14 05:15:00,
2013-05-14 01:30:00,34.7,32.0,30.16,North,360,0.0,0.0,91,0.00,,,0.00,weatherlink.com 1.10,2013-05-14 05:30:00,
2013-05-14 01:45:00,34.2,32.0,30.17,North,360,0.0,0.0,92,0.00,,,0.00,weatherlink.com 1.10,2013-05-14 05:45:00,
2013-05-14 02:00:00,33.8,32.0,30.17,North,360,0.0,0.0,92,0.00,,,0.00,weatherlink.com 1.10,2013-05-14 06:00:00,
2013-05-14 02:15:00,33.6,32.0,30.17,North,360,0.0,0.0,92,0.00,,,0.00,weatherlink.com 1.10,2013-05-14 06:15:00,
2013-05-14 02:30:00,33.4,32.0,30.17,North,360,0.0,0.0,93,0.00,,,0.00,weatherlink.com 1.10,2013-05-14 06:30:00,
2013-05-14 02:45:00,33.0,31.0,30.16,North,360,0.0,0.0,93,0.00,,,0.00,weatherlink.com 1.10,2013-05-14 06:45:00,
2013-05-14 03:00:00,32.6,31.0,30.16,North,360,0.0,0.0,93,0.00,,,0.00,weatherlink.com 1.10,2013-05-14 07:00:00,
2013-05-14 03:15:00,32.2,31.0,30.16,North,360,0.0,0.0,94,0.00,,,0.00,weatherlink.com 1.10,2013-05-14 07:15:00,
2013-05-14 03:30:00,32.0,31.0,30.16,North,360,0.0,0.0,94,0.00,,,0.00,weatherlink.com 1.10,2013-05-14 07:30:00,
2013-05-14 03:45:00,31.5,30.0,30.16,North,360,0.0,1.0,94,0.00,,,0.00,weatherlink.com 1.10,2013-05-14 07:45:00,
2013-05-14 04:00:00,31.5,30.0,30.17,North,360,0.0,0.0,95,0.00,,,0.00,weatherlink.com 1.10,2013-05-14 08:00:00,
2013-05-14 04:15:00,31.2,30.0,30.16,North,360,0.0,0.0,95,0.00,,,0.00,weatherlink.com 1.10,2013-05-14 08:15:00,
2013-05-14 04:30:00,30.9,30.0,30.16,North,360,0.0,0.0,95,0.00,,,0.00,weatherlink.com 1.10,2013-05-14 08:30:00,
2013-05-14 04:45:00,30.6,29.0,30.17,North,360,0.0,0.0,95,0.00,,,0.00,weatherlink.com 1.10,2013-05-14 08:45:00,
2013-05-14 05:00:00,30.6,29.0,30.17,North,360,0.0,0.0,95,0.00,,,0.00,weatherlink.com 1.10,2013-05-14 09:00:00,
2013-05-14 05:15:00,30.2,29.0,30.16,North,360,0.0,0.0,96,0.00,,,0.00,weatherlink.com 1.10,2013-05-14 09:15:00,
2013-05-14 05:30:00,30.2,29.0,30.17,North,360,0.0,0.0,96,0.00,,,0.00,weatherlink.com 1.10,2013-05-14 09:30:00,
2013-05-14 05:45:00,30.1,29.0,30.17,North,360,0.0,0.0,96,0.00,,,0.00,weatherlink.com 1.10,2013-05-14 09:45:00,
2013-05-14 06:00:00,30.0,29.0,30.17,North,360,0.0,0.0,96,0.00,,,0.00,weatherlink.com 1.10,2013-05-14 10:00:00,
2013-05-14 06:15:00,30.2,29.0,30.18,North,360,0.0,0.0,96,0.00,,,0.00,weatherlink.com 1.10,2013-05-14 10:15:00,
2013-05-14 06:30:00,30.7,30.0,30.18,North,360,0.0,0.0,96,0.00,,,0.00,weatherlink.com 1.10,2013-05-14 10:30:00,
2013-05-14 06:46:00,31.6,31.0,30.19,North,360,0.0,0.0,96,0.00,,,0.00,weatherlink.com 1.10,2013-05-14 10:46:00,
2013-05-14 07:01:00,33.1,32.0,30.19,North,360,0.0,0.0,96,0.00,,,0.00,weatherlink.com 1.10,2013-05-14 11:01:00,
2013-05-14 07:16:00,35.0,34.0,30.19,North,360,0.0,0.0,97,0.00,,,0.00,weatherlink.com 1.10,2013-05-14 11:16:00,
2013-05-14 07:31:00,36.9,36.0,30.19,North,360,0.0,0.0,96,0.00,,,0.00,weatherlink.com 1.10,2013-05-14 11:31:00,
2013-05-14 07:46:00,39.3,36.0,30.19,North,360,0.0,1.0,88,0.00,,,0.00,weatherlink.com 1.10,2013-05-14 11:46:00,
2013-05-14 08:01:00,41.4,36.0,30.19,North,360,0.0,1.0,80,0.00,,,0.00,weatherlink.com 1.10,2013-05-14 12:01:00,
2013-05-14 08:16:00,43.8,35.0,30.20,WNW,292,0.0,2.0,71,0.00,,,0.00,weatherlink.com 1.10,2013-05-14 12:16:00,
2013-05-14 08:31:00,45.8,34.0,30.20,WNW,290,0.0,4.0,63,0.00,,,0.00,weatherlink.com 1.10,2013-05-14 12:31:00,
2013-05-14 08:46:00,46.9,33.0,30.20,WNW,287,2.0,4.0,60,0.00,,,0.00,weatherlink.com 1.10,2013-05-14 12:46:00,
2013-05-14 09:01:00,48.4,32.0,30.20,WNW,288,0.0,5.0,53,0.00,,,0.00,weatherlink.com 1.10,2013-05-14 13:01:00,
2013-05-14 09:16:00,48.9,32.0,30.19,NNW,329,1.0,7.0,53,0.00,,,0.00,weatherlink.com 1.10,2013-05-14 13:16:00,
2013-05-14 09:31:00,49.4,33.0,30.19,NNW,327,2.0,8.0,53,0.00,,,0.00,weatherlink.com 1.10,2013-05-14 13:31:00,
2013-05-14 09:46:00,49.2,34.0,30.19,WNW,284,3.0,8.0,56,0.00,,,0.00,weatherlink.com 1.10,2013-05-14 13:46:00,
2013-05-14 10:01:00,50.0,34.0,30.18,WNW,293,5.0,10.0,55,0.00,,,0.00,weatherlink.com 1.10,2013-05-14 14:01:00,
2013-05-14 10:16:00,50.2,34.0,30.18,NW,326,6.0,7.0,55,0.00,,,0.00,weatherlink.com 1.10,2013-05-14 14:16:00,
2013-05-14 10:31:00,50.9,35.0,30.17,North,350,7.0,10.0,54,0.00,,,0.00,weatherlink.com 1.10,2013-05-14 14:31:00,
2013-05-14 10:46:00,51.0,35.0,30.17,West,273,0.0,7.0,54,0.00,,,0.00,weatherlink.com 1.10,2013-05-14 14:46:00,
2013-05-14 11:02:00,51.5,31.0,30.17,NW,314,7.0,11.0,46,0.00,,,0.00,weatherlink.com 1.10,2013-05-14 15:02:00,
2013-05-14 11:17:00,51.6,31.0,30.16,WSW,248,4.0,11.0,45,0.00,,,0.00,weatherlink.com 1.10,2013-05-14 15:17:00,
2013-05-14 11:32:00,52.2,32.0,30.16,West,274,1.0,11.0,46,0.00,,,0.00,weatherlink.com 1.10,2013-05-14 15:32:00,
2013-05-14 11:47:00,53.5,33.0,30.16,NNW,333,5.0,10.0,46,0.00,,,0.00,weatherlink.com 1.10,2013-05-14 15:47:00,
2013-05-14 12:02:00,54.5,32.0,30.16,NNW,348,3.0,10.0,43,0.00,,,0.00,weatherlink.com 1.10,2013-05-14 16:02:00,
2013-05-14 12:17:00,53.5,32.0,30.15,SW,231,1.0,10.0,44,0.00,,,0.00,weatherlink.com 1.10,2013-05-14 16:17:00,
2013-05-14 12:32:00,55.5,34.0,30.16,West,268,9.0,12.0,45,0.00,,,0.00,weatherlink.com 1.10,2013-05-14 16:32:00,
2013-05-14 12:47:00,54.9,33.0,30.14,WSW,250,4.0,11.0,43,0.00,,,0.00,weatherlink.com 1.10,2013-05-14 16:47:00,
2013-05-14 13:02:00,55.4,34.0,30.14,NW,306,4.0,13.0,44,0.00,,,0.00,weatherlink.com 1.10,2013-05-14 17:02:00,
2013-05-14 13:17:00,54.4,32.0,30.14,NNW,342,6.0,14.0,42,0.00,,,0.00,weatherlink.com 1.10,2013-05-14 17:17:00,
2013-05-14 13:32:00,55.0,31.0,30.13,West,277,6.0,10.0,40,0.00,,,0.00,weatherlink.com 1.10,2013-05-14 17:32:00,
2013-05-14 13:47:00,55.6,33.0,30.13,NW,320,0.0,11.0,42,0.00,,,0.00,weatherlink.com 1.10,2013-05-14 17:47:00,
2013-05-14 14:02:00,56.0,32.0,30.13,WNW,296,6.0,11.0,41,0.00,,,0.00,weatherlink.com 1.10,2013-05-14 18:02:00,
2013-05-14 14:17:00,57.2,33.0,30.12,WSW,257,1.0,9.0,40,0.00,,,0.00,weatherlink.com 1.10,2013-05-14 18:17:00,
2013-05-14 14:32:00,57.3,36.0,30.12,WNW,289,2.0,10.0,45,0.00,,,0.00,weatherlink.com 1.10,2013-05-14 18:32:00,
2013-05-14 14:47:00,57.9,32.0,30.11,WSW,237,3.0,12.0,38,0.00,,,0.00,weatherlink.com 1.10,2013-05-14 18:47:00,
2013-05-14 15:02:00,57.9,32.0,30.11,West,267,1.0,9.0,37,0.00,,,0.00,weatherlink.com 1.10,2013-05-14 19:02:00,
2013-05-14 15:17:00,58.7,31.0,30.11,NW,325,1.0,12.0,35,0.00,,,0.00,weatherlink.com 1.10,2013-05-14 19:17:00,
2013-05-14 15:32:00,58.3,31.0,30.10,WNW,302,5.0,12.0,36,0.00,,,0.00,weatherlink.com 1.10,2013-05-14 19:32:00,
2013-05-14 15:47:00,58.2,31.0,30.10,WNW,296,4.0,12.0,35,0.00,,,0.00,weatherlink.com 1.10,2013-05-14 19:47:00,
2013-05-14 16:02:00,58.5,30.0,30.10,NW,321,5.0,8.0,34,0.00,,,0.00,weatherlink.com 1.10,2013-05-14 20:02:00,
2013-05-14 16:17:00,58.9,30.0,30.09,West,279,7.0,8.0,33,0.00,,,0.00,weatherlink.com 1.10,2013-05-14 20:17:00,
2013-05-14 16:32:00,58.7,31.0,30.08,WNW,288,1.0,11.0,35,0.00,,,0.00,weatherlink.com 1.10,2013-05-14 20:32:00,
2013-05-14 16:47:00,58.9,32.0,30.07,NNW,335,4.0,10.0,37,0.00,,,0.00,weatherlink.com 1.10,2013-05-14 20:47:00,
2013-05-14 17:02:00,58.9,32.0,30.07,NW,324,5.0,10.0,36,0.00,,,0.00,weatherlink.com 1.10,2013-05-14 21:02:00,
2013-05-14 17:17:00,59.6,30.0,30.07,WSW,257,6.0,9.0,33,0.00,,,0.00,weatherlink.com 1.10,2013-05-14 21:17:00,
2013-05-14 17:32:00,59.6,30.0,30.07,West,275,6.0,9.0,33,0.00,,,0.00,weatherlink.com 1.10,2013-05-14 21:32:00,
2013-05-14 17:47:00,58.7,28.0,30.07,NW,318,3.0,8.0,31,0.00,,,0.00,weatherlink.com 1.10,2013-05-14 21:47:00,
2013-05-14 18:02:00,58.7,28.0,30.07,NW,320,4.0,7.0,31,0.00,,,0.00,weatherlink.com 1.10,2013-05-14 22:02:00,
2013-05-14 18:17:00,59.0,30.0,30.07,WNW,302,3.0,8.0,34,0.00,,,0.00,weatherlink.com 1.10,2013-05-14 22:17:00,
2013-05-14 18:32:00,58.7,29.0,30.07,West,279,0.0,9.0,33,0.00,,,0.00,weatherlink.com 1.10,2013-05-14 22:32:00,
2013-05-14 18:47:00,58.6,32.0,30.07,WNW,296,1.0,5.0,36,0.00,,,0.00,weatherlink.com 1.10,2013-05-14 22:47:00,
2013-05-14 19:02:00,56.9,31.0,30.06,West,269,0.0,5.0,38,0.00,,,0.00,weatherlink.com 1.10,2013-05-14 23:02:00,
2013-05-14 19:17:00,55.1,33.0,30.06,West,269,0.0,1.0,44,0.00,,,0.00,weatherlink.com 1.10,2013-05-14 23:17:00,
2013-05-14 19:32:00,53.5,35.0,30.06,West,269,0.0,1.0,50,0.00,,,0.00,weatherlink.com 1.10,2013-05-14 23:32:00,
2013-05-14 19:47:00,51.7,34.0,30.05,West,269,0.0,0.0,52,0.00,,,0.00,weatherlink.com 1.10,2013-05-14 23:47:00,
2013-05-14 20:02:00,50.5,35.0,30.05,West,269,0.0,0.0,55,0.00,,,0.00,weatherlink.com 1.10,2013-05-15 00:02:00,
2013-05-14 20:17:00,49.9,39.0,30.05,West,269,0.0,0.0,66,0.00,,,0.00,weatherlink.com 1.10,2013-05-15 00:17:00,
2013-05-14 20:32:00,49.7,38.0,30.05,West,269,0.0,1.0,64,0.00,,,0.00,weatherlink.com 1.10,2013-05-15 00:32:00,
2013-05-14 20:47:00,49.4,40.0,30.05,West,269,0.0,1.0,70,0.00,,,0.00,weatherlink.com 1.10,2013-05-15 00:47:00,
2013-05-14 21:03:00,49.2,39.0,30.06,West,269,0.0,0.0,69,0.00,,,0.00,weatherlink.com 1.10,2013-05-15 01:03:00,
2013-05-14 21:18:00,49.2,40.0,30.08,West,269,0.0,1.0,71,0.00,,,0.00,weatherlink.com 1.10,2013-05-15 01:18:00,
2013-05-14 21:33:00,49.2,39.0,30.08,West,269,0.0,0.0,68,0.00,,,0.00,weatherlink.com 1.10,2013-05-15 01:33:00,
2013-05-14 21:48:00,49.3,41.0,30.08,West,269,0.0,1.0,72,0.00,,,0.00,weatherlink.com 1.10,2013-05-15 01:48:00,
2013-05-14 22:03:00,49.1,41.0,30.09,West,269,0.0,0.0,73,0.00,,,0.00,weatherlink.com 1.10,2013-05-15 02:03:00,
2013-05-14 22:18:00,49.1,40.0,30.08,West,269,0.0,0.0,72,0.00,,,0.00,weatherlink.com 1.10,2013-05-15 02:18:00,
2013-05-14 22:33:00,48.9,42.0,30.09,West,269,0.0,0.0,78,0.00,,,0.00,weatherlink.com 1.10,2013-05-15 02:33:00,
2013-05-14 22:48:00,48.6,42.0,30.09,West,269,0.0,0.0,78,0.00,,,0.00,weatherlink.com 1.10,2013-05-15 02:48:00,
2013-05-14 23:03:00,48.2,43.0,30.09,West,269,0.0,0.0,82,0.00,,,0.00,weatherlink.com 1.10,2013-05-15 03:03:00,
2013-05-14 23:18:00,47.8,44.0,30.08,West,269,0.0,0.0,87,0.00,,,0.00,weatherlink.com 1.10,2013-05-15 03:18:00,
2013-05-14 23:33:00,47.5,45.0,30.08,West,269,0.0,1.0,90,0.00,,,0.00,weatherlink.com 1.10,2013-05-15 03:33:00,
2013-05-14 23:48:00,47.5,45.0,30.08,West,269,0.0,0.0,92,0.01,,,0.01,weatherlink.com 1.10,2013-05-15 03:48:00,